sensor_id;sensor_type;location;lat;lon;timestamp;pressure;altitude;pressure_sealevel;temperature;humidity
13407;BME280;6774;48.208;10.766;2022-11-30T00:01:49;95703.56;;;4.77;91.41
13407;BME280;6774;48.208;10.766;2022-11-30T00:04:17;95708.91;;;4.75;91.75
13407;BME280;6774;48.208;10.766;2022-11-30T00:06:45;95709.06;;;4.74;91.60
13407;BME280;6774;48.208;10.766;2022-11-30T00:09:14;95714.69;;;4.79;91.81
13407;BME280;6774;48.208;10.766;2022-11-30T00:11:42;95711.25;;;4.78;91.44
13407;BME280;6774;48.208;10.766;2022-11-30T00:14:10;95708.09;;;4.75;91.50
13407;BME280;6774;48.208;10.766;2022-11-30T00:16:38;95714.81;;;4.77;91.13
13407;BME280;6774;48.208;10.766;2022-11-30T00:19:06;95705.47;;;4.75;90.63
13407;BME280;6774;48.208;10.766;2022-11-30T00:21:34;95707.41;;;4.73;91.03
13407;BME280;6774;48.208;10.766;2022-11-30T00:24:03;95711.66;;;4.74;91.41
13407;BME280;6774;48.208;10.766;2022-11-30T00:26:33;95712.94;;;4.70;91.50
13407;BME280;6774;48.208;10.766;2022-11-30T00:29:02;95720.63;;;4.71;91.56
13407;BME280;6774;48.208;10.766;2022-11-30T00:31:30;95715.81;;;4.76;91.58
13407;BME280;6774;48.208;10.766;2022-11-30T00:33:58;95723.50;;;4.78;91.33
13407;BME280;6774;48.208;10.766;2022-11-30T00:36:26;95726.38;;;4.75;91.43
13407;BME280;6774;48.208;10.766;2022-11-30T00:38:54;95726.25;;;4.76;90.97
13407;BME280;6774;48.208;10.766;2022-11-30T00:41:22;95728.88;;;4.76;91.09
13407;BME280;6774;48.208;10.766;2022-11-30T00:43:51;95719.75;;;4.80;91.33
13407;BME280;6774;48.208;10.766;2022-11-30T00:46:19;95732.16;;;4.78;90.40
13407;BME280;6774;48.208;10.766;2022-11-30T00:48:47;95739.03;;;4.79;90.09
13407;BME280;6774;48.208;10.766;2022-11-30T00:51:15;95732.16;;;4.78;90.15
13407;BME280;6774;48.208;10.766;2022-11-30T00:53:44;95734.09;;;4.76;90.43
13407;BME280;6774;48.208;10.766;2022-11-30T00:56:13;95739.19;;;4.78;90.82
13407;BME280;6774;48.208;10.766;2022-11-30T00:58:41;95747.69;;;4.80;90.59
13407;BME280;6774;48.208;10.766;2022-11-30T01:01:11;95735.97;;;4.84;89.96
13407;BME280;6774;48.208;10.766;2022-11-30T01:03:39;95746.28;;;4.85;89.10
13407;BME280;6774;48.208;10.766;2022-11-30T01:06:08;95742.09;;;4.93;88.74
13407;BME280;6774;48.208;10.766;2022-11-30T01:08:36;95740.38;;;4.83;89.13
13407;BME280;6774;48.208;10.766;2022-11-30T01:11:06;95750.47;;;4.78;89.34
13407;BME280;6774;48.208;10.766;2022-11-30T01:13:35;95755.00;;;4.76;89.81
13407;BME280;6774;48.208;10.766;2022-11-30T01:16:08;95756.25;;;4.72;89.84
13407;BME280;6774;48.208;10.766;2022-11-30T01:18:38;95750.03;;;5.01;89.77
13407;BME280;6774;48.208;10.766;2022-11-30T01:21:06;95749.47;;;5.25;88.25
13407;BME280;6774;48.208;10.766;2022-11-30T01:23:34;95753.97;;;5.32;87.71
13407;BME280;6774;48.208;10.766;2022-11-30T01:26:02;95750.53;;;5.32;87.52
13407;BME280;6774;48.208;10.766;2022-11-30T01:28:31;95754.31;;;5.37;87.58
13407;BME280;6774;48.208;10.766;2022-11-30T01:31:00;95749.56;;;5.33;87.87
13407;BME280;6774;48.208;10.766;2022-11-30T01:33:28;95758.22;;;5.33;87.67
13407;BME280;6774;48.208;10.766;2022-11-30T01:36:01;95749.09;;;5.37;87.77
13407;BME280;6774;48.208;10.766;2022-11-30T01:38:31;95746.03;;;5.42;87.48
13407;BME280;6774;48.208;10.766;2022-11-30T01:40:59;95751.88;;;5.36;87.61
13407;BME280;6774;48.208;10.766;2022-11-30T01:43:45;95752.41;;;5.39;87.45
13407;BME280;6774;48.208;10.766;2022-11-30T01:46:21;95753.50;;;5.37;87.66
13407;BME280;6774;48.208;10.766;2022-11-30T01:48:56;95753.66;;;5.35;87.72
13407;BME280;6774;48.208;10.766;2022-11-30T01:51:31;95750.38;;;5.33;87.63
13407;BME280;6774;48.208;10.766;2022-11-30T01:54:03;95754.63;;;5.34;87.92
13407;BME280;6774;48.208;10.766;2022-11-30T01:56:34;95761.50;;;5.35;88.04
13407;BME280;6774;48.208;10.766;2022-11-30T01:59:02;95759.56;;;5.37;88.13
13407;BME280;6774;48.208;10.766;2022-11-30T02:01:31;95756.66;;;5.40;87.70
13407;BME280;6774;48.208;10.766;2022-11-30T02:04:02;95765.03;;;5.44;87.33
13407;BME280;6774;48.208;10.766;2022-11-30T02:06:33;95762.56;;;5.42;86.85
13407;BME280;6774;48.208;10.766;2022-11-30T02:09:01;95764.50;;;5.40;86.70
13407;BME280;6774;48.208;10.766;2022-11-30T02:11:29;95768.78;;;5.41;86.88
13407;BME280;6774;48.208;10.766;2022-11-30T02:14:13;95761.50;;;5.35;87.50
13407;BME280;6774;48.208;10.766;2022-11-30T02:16:49;95765.09;;;5.34;87.60
13407;BME280;6774;48.208;10.766;2022-11-30T02:19:52;95765.50;;;5.39;88.03
13407;BME280;6774;48.208;10.766;2022-11-30T02:22:42;95759.28;;;5.40;87.63
13407;BME280;6774;48.208;10.766;2022-11-30T02:25:19;95758.22;;;5.33;87.41
13407;BME280;6774;48.208;10.766;2022-11-30T02:28:03;95764.28;;;5.34;87.56
13407;BME280;6774;48.208;10.766;2022-11-30T02:30:42;95764.03;;;5.27;87.48
13407;BME280;6774;48.208;10.766;2022-11-30T02:33:14;95762.72;;;5.23;87.76
13407;BME280;6774;48.208;10.766;2022-11-30T02:35:47;95763.00;;;5.20;87.00
13407;BME280;6774;48.208;10.766;2022-11-30T02:38:22;95768.91;;;5.22;86.90
13407;BME280;6774;48.208;10.766;2022-11-30T02:40:52;95769.28;;;5.27;87.06
13407;BME280;6774;48.208;10.766;2022-11-30T02:43:21;95766.00;;;5.25;86.86
13407;BME280;6774;48.208;10.766;2022-11-30T02:45:58;95764.94;;;5.18;87.47
13407;BME280;6774;48.208;10.766;2022-11-30T02:48:33;95764.94;;;5.18;87.44
13407;BME280;6774;48.208;10.766;2022-11-30T02:51:07;95764.66;;;5.21;87.79
13407;BME280;6774;48.208;10.766;2022-11-30T02:53:37;95766.00;;;5.25;87.75
13407;BME280;6774;48.208;10.766;2022-11-30T02:56:05;95771.81;;;5.19;87.61
13407;BME280;6774;48.208;10.766;2022-11-30T02:58:34;95763.97;;;5.19;87.88
13407;BME280;6774;48.208;10.766;2022-11-30T03:01:03;95765.75;;;5.19;88.04
13407;BME280;6774;48.208;10.766;2022-11-30T03:03:31;95764.25;;;5.16;87.95
13407;BME280;6774;48.208;10.766;2022-11-30T03:05:59;95756.41;;;5.16;88.00
13407;BME280;6774;48.208;10.766;2022-11-30T03:08:27;95771.66;;;5.21;87.92
13407;BME280;6774;48.208;10.766;2022-11-30T03:10:55;95769.59;;;5.24;87.09
13407;BME280;6774;48.208;10.766;2022-11-30T03:13:23;95768.91;;;5.22;86.48
13407;BME280;6774;48.208;10.766;2022-11-30T03:15:51;95771.53;;;5.22;86.46
13407;BME280;6774;48.208;10.766;2022-11-30T03:18:20;95772.50;;;5.21;86.28
13407;BME280;6774;48.208;10.766;2022-11-30T03:20:48;95768.81;;;5.14;86.52
13407;BME280;6774;48.208;10.766;2022-11-30T03:23:16;95765.81;;;5.09;86.96
13407;BME280;6774;48.208;10.766;2022-11-30T03:25:44;95776.19;;;5.01;87.21
13407;BME280;6774;48.208;10.766;2022-11-30T03:28:11;95777.47;;;4.97;87.69
13407;BME280;6774;48.208;10.766;2022-11-30T03:30:39;95784.50;;;4.96;87.64
13407;BME280;6774;48.208;10.766;2022-11-30T03:33:08;95781.88;;;4.96;87.37
13407;BME280;6774;48.208;10.766;2022-11-30T03:35:37;95781.31;;;4.93;87.48
13407;BME280;6774;48.208;10.766;2022-11-30T03:38:05;95776.53;;;4.88;87.36
13407;BME280;6774;48.208;10.766;2022-11-30T03:40:35;95776.84;;;4.85;87.94
13407;BME280;6774;48.208;10.766;2022-11-30T03:43:03;95777.53;;;4.87;87.62
13407;BME280;6774;48.208;10.766;2022-11-30T03:45:31;95782.19;;;4.83;87.51
13407;BME280;6774;48.208;10.766;2022-11-30T03:47:59;95786.09;;;4.79;87.73
13407;BME280;6774;48.208;10.766;2022-11-30T03:50:27;95778.91;;;4.81;87.81
13407;BME280;6774;48.208;10.766;2022-11-30T03:52:56;95785.13;;;4.80;87.87
13407;BME280;6774;48.208;10.766;2022-11-30T03:55:24;95787.06;;;4.78;88.19
13407;BME280;6774;48.208;10.766;2022-11-30T03:57:51;95794.91;;;4.78;87.94
13407;BME280;6774;48.208;10.766;2022-11-30T04:00:20;95791.97;;;4.81;88.16
13407;BME280;6774;48.208;10.766;2022-11-30T04:02:47;95788.25;;;4.84;87.75
13407;BME280;6774;48.208;10.766;2022-11-30T04:05:15;95799.81;;;4.81;87.67
13407;BME280;6774;48.208;10.766;2022-11-30T04:07:43;95783.84;;;4.84;86.85
13407;BME280;6774;48.208;10.766;2022-11-30T04:10:12;95785.22;;;4.89;86.50
13407;BME280;6774;48.208;10.766;2022-11-30T04:12:41;95786.56;;;4.93;86.29
13407;BME280;6774;48.208;10.766;2022-11-30T04:15:09;95783.81;;;4.94;86.20
13407;BME280;6774;48.208;10.766;2022-11-30T04:17:37;95789.03;;;4.94;86.31
13407;BME280;6774;48.208;10.766;2022-11-30T04:20:06;95783.94;;;4.93;86.22
13407;BME280;6774;48.208;10.766;2022-11-30T04:22:33;95787.16;;;4.87;86.16
13407;BME280;6774;48.208;10.766;2022-11-30T04:25:01;95788.13;;;4.85;86.56
13407;BME280;6774;48.208;10.766;2022-11-30T04:27:30;95783.56;;;4.88;86.84
13407;BME280;6774;48.208;10.766;2022-11-30T04:29:58;95788.50;;;4.91;86.78
13407;BME280;6774;48.208;10.766;2022-11-30T04:32:26;95779.41;;;4.95;86.10
13407;BME280;6774;48.208;10.766;2022-11-30T04:34:54;95795.09;;;4.95;85.93
13407;BME280;6774;48.208;10.766;2022-11-30T04:37:22;95788.19;;;4.94;85.91
13407;BME280;6774;48.208;10.766;2022-11-30T04:39:49;95786.72;;;4.91;85.97
13407;BME280;6774;48.208;10.766;2022-11-30T04:42:17;95789.47;;;4.90;85.95
13407;BME280;6774;48.208;10.766;2022-11-30T04:44:47;95784.25;;;4.90;86.08
13407;BME280;6774;48.208;10.766;2022-11-30T04:47:15;95782.75;;;4.87;86.20
13407;BME280;6774;48.208;10.766;2022-11-30T04:49:42;95790.13;;;4.92;85.97
13407;BME280;6774;48.208;10.766;2022-11-30T04:52:10;95794.03;;;4.88;86.23
13407;BME280;6774;48.208;10.766;2022-11-30T04:54:38;95788.50;;;4.91;85.87
13407;BME280;6774;48.208;10.766;2022-11-30T04:57:06;95783.56;;;4.88;86.01
13407;BME280;6774;48.208;10.766;2022-11-30T04:59:34;95789.63;;;4.88;86.13
13407;BME280;6774;48.208;10.766;2022-11-30T05:02:04;95782.19;;;4.83;86.30
13407;BME280;6774;48.208;10.766;2022-11-30T05:04:32;95784.69;;;4.85;87.17
13407;BME280;6774;48.208;10.766;2022-11-30T05:07:00;95788.13;;;4.85;86.54
13407;BME280;6774;48.208;10.766;2022-11-30T05:09:28;95789.06;;;4.84;86.64
13407;BME280;6774;48.208;10.766;2022-11-30T05:11:55;95789.38;;;4.81;86.56
13407;BME280;6774;48.208;10.766;2022-11-30T05:14:23;95792.13;;;4.80;86.66
13407;BME280;6774;48.208;10.766;2022-11-30T05:16:51;95791.00;;;4.82;86.29
13407;BME280;6774;48.208;10.766;2022-11-30T05:19:21;95792.66;;;4.83;86.40
13407;BME280;6774;48.208;10.766;2022-11-30T05:21:48;95791.84;;;4.83;86.54
13407;BME280;6774;48.208;10.766;2022-11-30T05:24:16;95790.03;;;4.83;86.45
13407;BME280;6774;48.208;10.766;2022-11-30T05:26:44;95795.28;;;4.83;86.86
13407;BME280;6774;48.208;10.766;2022-11-30T05:29:12;95789.06;;;4.84;87.03
13407;BME280;6774;48.208;10.766;2022-11-30T05:31:40;95791.69;;;4.84;86.81
13407;BME280;6774;48.208;10.766;2022-11-30T05:34:08;95791.41;;;4.88;86.74
13407;BME280;6774;48.208;10.766;2022-11-30T05:36:37;95792.91;;;4.90;86.61
13407;BME280;6774;48.208;10.766;2022-11-30T05:39:05;95799.41;;;4.86;86.65
13407;BME280;6774;48.208;10.766;2022-11-30T05:41:33;95804.50;;;4.88;87.01
13407;BME280;6774;48.208;10.766;2022-11-30T05:44:01;95804.75;;;4.84;87.15
13407;BME280;6774;48.208;10.766;2022-11-30T05:46:29;95808.06;;;4.87;86.95
13407;BME280;6774;48.208;10.766;2022-11-30T05:48:57;95808.34;;;4.83;86.82
13407;BME280;6774;48.208;10.766;2022-11-30T05:51:25;95804.75;;;4.84;86.70
13407;BME280;6774;48.208;10.766;2022-11-30T05:53:54;95814.69;;;4.81;87.14
13407;BME280;6774;48.208;10.766;2022-11-30T05:56:22;95807.66;;;4.81;86.51
13407;BME280;6774;48.208;10.766;2022-11-30T05:58:50;95808.78;;;4.79;86.60
13407;BME280;6774;48.208;10.766;2022-11-30T06:01:19;95805.63;;;4.75;86.63
13407;BME280;6774;48.208;10.766;2022-11-30T06:03:48;95815.56;;;4.72;86.83
13407;BME280;6774;48.208;10.766;2022-11-30T06:06:17;95814.16;;;4.77;86.44
13407;BME280;6774;48.208;10.766;2022-11-30T06:08:48;95817.47;;;4.79;86.59
13407;BME280;6774;48.208;10.766;2022-11-30T06:11:17;95817.47;;;4.79;85.86
13407;BME280;6774;48.208;10.766;2022-11-30T06:13:45;95812.91;;;4.81;85.96
13407;BME280;6774;48.208;10.766;2022-11-30T06:16:13;95818.13;;;4.81;86.36
13407;BME280;6774;48.208;10.766;2022-11-30T06:18:41;95815.50;;;4.81;86.02
13407;BME280;6774;48.208;10.766;2022-11-30T06:21:10;95812.78;;;4.73;85.64
13407;BME280;6774;48.208;10.766;2022-11-30T06:23:38;95813.91;;;4.71;85.22
13407;BME280;6774;48.208;10.766;2022-11-30T06:26:07;95820.25;;;4.68;85.57
13407;BME280;6774;48.208;10.766;2022-11-30T06:28:37;95814.75;;;4.71;85.47
13407;BME280;6774;48.208;10.766;2022-11-30T06:31:12;95822.59;;;4.71;85.42
13407;BME280;6774;48.208;10.766;2022-11-30T06:33:40;95823.56;;;4.70;85.26
13407;BME280;6774;48.208;10.766;2022-11-30T06:36:08;95822.72;;;4.70;85.36
13407;BME280;6774;48.208;10.766;2022-11-30T06:38:36;95827.69;;;4.63;85.41
13407;BME280;6774;48.208;10.766;2022-11-30T06:41:05;95823.56;;;4.70;85.19
13407;BME280;6774;48.208;10.766;2022-11-30T06:43:34;95824.22;;;4.72;85.71
13407;BME280;6774;48.208;10.766;2022-11-30T06:46:04;95832.75;;;4.74;85.47
13407;BME280;6774;48.208;10.766;2022-11-30T06:48:32;95830.41;;;4.71;85.25
13407;BME280;6774;48.208;10.766;2022-11-30T06:51:03;95829.34;;;4.64;84.92
13407;BME280;6774;48.208;10.766;2022-11-30T06:53:31;95830.75;;;4.59;85.03
13407;BME280;6774;48.208;10.766;2022-11-30T06:56:02;95836.00;;;4.49;85.01
13407;BME280;6774;48.208;10.766;2022-11-30T06:58:36;95841.91;;;4.51;84.76
13407;BME280;6774;48.208;10.766;2022-11-30T07:01:07;95832.97;;;4.44;84.68
13407;BME280;6774;48.208;10.766;2022-11-30T07:03:35;95836.94;;;4.48;84.39
13407;BME280;6774;48.208;10.766;2022-11-30T07:06:06;95843.16;;;4.37;84.41
13407;BME280;6774;48.208;10.766;2022-11-30T07:08:34;95846.59;;;4.38;84.04
13407;BME280;6774;48.208;10.766;2022-11-30T07:11:03;95844.25;;;4.44;83.38
13407;BME280;6774;48.208;10.766;2022-11-30T07:13:32;95854.44;;;4.38;83.46
13407;BME280;6774;48.208;10.766;2022-11-30T07:16:02;95844.00;;;4.38;83.46
13407;BME280;6774;48.208;10.766;2022-11-30T07:18:32;95836.88;;;4.30;83.55
13407;BME280;6774;48.208;10.766;2022-11-30T07:21:02;95835.19;;;4.39;83.19
13407;BME280;6774;48.208;10.766;2022-11-30T07:23:30;95839.56;;;4.48;83.47
13407;BME280;6774;48.208;10.766;2022-11-30T07:26:23;95840.28;;;4.50;83.40
13407;BME280;6774;48.208;10.766;2022-11-30T07:28:51;95838.34;;;4.52;83.49
13407;BME280;6774;48.208;10.766;2022-11-30T07:31:25;95839.81;;;4.54;83.17
13407;BME280;6774;48.208;10.766;2022-11-30T07:33:58;95842.28;;;4.56;82.93
13407;BME280;6774;48.208;10.766;2022-11-30T07:36:29;95843.41;;;4.53;83.11
13407;BME280;6774;48.208;10.766;2022-11-30T07:38:58;95836.84;;;4.49;82.67
13407;BME280;6774;48.208;10.766;2022-11-30T07:41:26;95848.63;;;4.53;83.29
13407;BME280;6774;48.208;10.766;2022-11-30T07:43:54;95849.75;;;4.51;83.31
13407;BME280;6774;48.208;10.766;2022-11-30T07:46:22;95857.84;;;4.48;83.27
13407;BME280;6774;48.208;10.766;2022-11-30T07:48:50;95853.03;;;4.53;83.05
13407;BME280;6774;48.208;10.766;2022-11-30T07:51:20;95853.72;;;4.55;83.01
13407;BME280;6774;48.208;10.766;2022-11-30T07:53:48;95861.56;;;4.55;83.20
13407;BME280;6774;48.208;10.766;2022-11-30T07:56:17;95856.59;;;4.62;82.76
13407;BME280;6774;48.208;10.766;2022-11-30T07:58:46;95865.09;;;4.64;82.81
13407;BME280;6774;48.208;10.766;2022-11-30T08:01:15;95859.06;;;4.63;82.77
13407;BME280;6774;48.208;10.766;2022-11-30T08:03:43;95857.41;;;4.62;82.91
13407;BME280;6774;48.208;10.766;2022-11-30T08:06:13;95862.34;;;4.65;82.63
13407;BME280;6774;48.208;10.766;2022-11-30T08:08:43;95865.69;;;4.57;82.82
13407;BME280;6774;48.208;10.766;2022-11-30T08:11:13;95869.13;;;4.58;82.40
13407;BME280;6774;48.208;10.766;2022-11-30T08:13:41;95875.84;;;4.61;81.59
13407;BME280;6774;48.208;10.766;2022-11-30T08:16:11;95864.16;;;4.55;81.10
13407;BME280;6774;48.208;10.766;2022-11-30T08:18:40;95866.78;;;4.55;80.30
13407;BME280;6774;48.208;10.766;2022-11-30T08:21:10;95869.22;;;4.66;80.49
13407;BME280;6774;48.208;10.766;2022-11-30T08:23:40;95859.88;;;4.64;80.51
13407;BME280;6774;48.208;10.766;2022-11-30T08:26:12;95862.34;;;4.65;80.82
13407;BME280;6774;48.208;10.766;2022-11-30T08:28:40;95857.41;;;4.62;80.50
13407;BME280;6774;48.208;10.766;2022-11-30T08:31:11;95859.47;;;4.68;80.84
13407;BME280;6774;48.208;10.766;2022-11-30T08:33:39;95866.59;;;4.66;81.73
13407;BME280;6774;48.208;10.766;2022-11-30T08:36:09;95870.91;;;4.67;81.96
13407;BME280;6774;48.208;10.766;2022-11-30T08:38:39;95871.44;;;4.71;81.68
13407;BME280;6774;48.208;10.766;2022-11-30T08:41:08;95873.06;;;4.72;81.39
13407;BME280;6774;48.208;10.766;2022-11-30T08:43:38;95869.22;;;4.76;81.10
13407;BME280;6774;48.208;10.766;2022-11-30T08:46:08;95878.94;;;4.83;80.79
13407;BME280;6774;48.208;10.766;2022-11-30T08:48:57;95878.25;;;4.81;81.26
13407;BME280;6774;48.208;10.766;2022-11-30T08:51:45;95883.50;;;4.81;80.62
13407;BME280;6774;48.208;10.766;2022-11-30T08:54:33;95875.09;;;4.88;80.92
13407;BME280;6774;48.208;10.766;2022-11-30T08:57:01;95880.88;;;4.81;81.58
13407;BME280;6774;48.208;10.766;2022-11-30T08:59:31;95878.53;;;4.88;81.16
13407;BME280;6774;48.208;10.766;2022-11-30T09:01:59;95882.16;;;4.77;81.28
13407;BME280;6774;48.208;10.766;2022-11-30T09:04:27;95883.19;;;4.84;80.98
13407;BME280;6774;48.208;10.766;2022-11-30T09:06:55;95877.03;;;4.85;81.10
13407;BME280;6774;48.208;10.766;2022-11-30T09:09:25;95877.03;;;4.85;80.42
13407;BME280;6774;48.208;10.766;2022-11-30T09:11:53;95885.25;;;4.91;80.56
13407;BME280;6774;48.208;10.766;2022-11-30T09:14:22;95886.09;;;4.81;80.43
13407;BME280;6774;48.208;10.766;2022-11-30T09:16:51;95889.41;;;4.83;79.75
13407;BME280;6774;48.208;10.766;2022-11-30T09:19:20;95888.53;;;4.93;80.08
13407;BME280;6774;48.208;10.766;2022-11-30T09:21:47;95890.59;;;4.99;81.05
13407;BME280;6774;48.208;10.766;2022-11-30T09:24:18;95886.75;;;4.93;80.31
13407;BME280;6774;48.208;10.766;2022-11-30T09:26:46;95885.34;;;4.99;80.01
13407;BME280;6774;48.208;10.766;2022-11-30T09:29:14;95892.22;;;5.00;80.58
13407;BME280;6774;48.208;10.766;2022-11-30T09:31:42;95884.13;;;4.93;80.43
13407;BME280;6774;48.208;10.766;2022-11-30T09:34:11;95881.00;;;4.90;80.33
13407;BME280;6774;48.208;10.766;2022-11-30T09:36:39;95877.66;;;4.97;80.37
13407;BME280;6774;48.208;10.766;2022-11-30T09:39:09;95886.22;;;4.90;80.87
13407;BME280;6774;48.208;10.766;2022-11-30T09:42:02;95888.16;;;4.88;81.06
13407;BME280;6774;48.208;10.766;2022-11-30T09:44:41;95884.56;;;4.89;81.16
13407;BME280;6774;48.208;10.766;2022-11-30T09:47:24;95886.22;;;4.90;81.14
13407;BME280;6774;48.208;10.766;2022-11-30T09:50:02;95880.03;;;4.91;81.78
13407;BME280;6774;48.208;10.766;2022-11-30T09:52:33;95886.50;;;4.87;80.56
13407;BME280;6774;48.208;10.766;2022-11-30T09:55:07;95883.72;;;4.98;80.60
13407;BME280;6774;48.208;10.766;2022-11-30T09:57:42;95880.69;;;4.93;81.14
13407;BME280;6774;48.208;10.766;2022-11-30T10:00:13;95876.72;;;4.89;81.06
13407;BME280;6774;48.208;10.766;2022-11-30T10:02:42;95882.06;;;4.97;81.10
13407;BME280;6774;48.208;10.766;2022-11-30T10:05:13;95877.25;;;4.92;80.32
13407;BME280;6774;48.208;10.766;2022-11-30T10:07:56;95876.38;;;5.01;80.92
13407;BME280;6774;48.208;10.766;2022-11-30T10:10:34;95872.97;;;5.01;81.13
13407;BME280;6774;48.208;10.766;2022-11-30T10:13:20;95870.19;;;5.02;80.04
13407;BME280;6774;48.208;10.766;2022-11-30T10:15:57;95868.81;;;5.08;79.86
13407;BME280;6774;48.208;10.766;2022-11-30T10:18:37;95869.47;;;5.10;80.11
13407;BME280;6774;48.208;10.766;2022-11-30T10:21:16;95877.72;;;5.15;80.68
13407;BME280;6774;48.208;10.766;2022-11-30T10:24:07;95869.88;;;5.15;80.93
13407;BME280;6774;48.208;10.766;2022-11-30T10:26:46;95873.00;;;5.19;80.44
13407;BME280;6774;48.208;10.766;2022-11-30T10:29:21;95871.78;;;5.23;80.12
13407;BME280;6774;48.208;10.766;2022-11-30T10:31:56;95864.78;;;5.13;79.40
13407;BME280;6774;48.208;10.766;2022-11-30T10:34:30;95870.16;;;5.12;79.75
13407;BME280;6774;48.208;10.766;2022-11-30T10:37:03;95867.16;;;5.07;80.44
13407;BME280;6774;48.208;10.766;2022-11-30T10:39:39;95866.47;;;5.05;80.80
13407;BME280;6774;48.208;10.766;2022-11-30T10:42:12;95863.31;;;5.01;80.88
13407;BME280;6774;48.208;10.766;2022-11-30T10:44:55;95850.06;;;5.12;81.15
13407;BME280;6774;48.208;10.766;2022-11-30T10:47:29;95863.00;;;5.14;80.95
13407;BME280;6774;48.208;10.766;2022-11-30T10:49:59;95861.06;;;5.16;81.18
13407;BME280;6774;48.208;10.766;2022-11-30T10:52:31;95853.59;;;5.21;80.13
13407;BME280;6774;48.208;10.766;2022-11-30T10:55:01;95854.44;;;5.22;80.17
13407;BME280;6774;48.208;10.766;2022-11-30T10:57:31;95846.59;;;5.12;80.98
13407;BME280;6774;48.208;10.766;2022-11-30T11:00:02;95841.53;;;5.10;80.81
13407;BME280;6774;48.208;10.766;2022-11-30T11:02:37;95848.84;;;5.07;80.69
13407;BME280;6774;48.208;10.766;2022-11-30T11:05:15;95847.72;;;4.82;81.14
13407;BME280;6774;48.208;10.766;2022-11-30T11:07:47;95848.44;;;5.02;80.71
13407;BME280;6774;48.208;10.766;2022-11-30T11:10:18;95858.69;;;4.95;80.61
13407;BME280;6774;48.208;10.766;2022-11-30T11:12:48;95859.78;;;4.93;80.83
13407;BME280;6774;48.208;10.766;2022-11-30T11:15:19;95851.06;;;5.02;81.12
13407;BME280;6774;48.208;10.766;2022-11-30T11:17:48;95856.59;;;4.99;81.15
13407;BME280;6774;48.208;10.766;2022-11-30T11:20:29;95865.00;;;4.93;80.86
13407;BME280;6774;48.208;10.766;2022-11-30T11:22:59;95866.94;;;4.91;80.42
13407;BME280;6774;48.208;10.766;2022-11-30T11:25:32;95863.75;;;4.97;80.89
13407;BME280;6774;48.208;10.766;2022-11-30T11:28:04;95868.59;;;4.92;80.93
13407;BME280;6774;48.208;10.766;2022-11-30T11:30:35;95860.06;;;4.90;80.49
13407;BME280;6774;48.208;10.766;2022-11-30T11:33:18;95858.69;;;4.95;80.83
13407;BME280;6774;48.208;10.766;2022-11-30T11:35:48;95863.69;;;4.79;80.48
13407;BME280;6774;48.208;10.766;2022-11-30T11:38:19;95847.66;;;4.92;80.94
13407;BME280;6774;48.208;10.766;2022-11-30T11:40:55;95855.91;;;4.97;80.86
13407;BME280;6774;48.208;10.766;2022-11-30T11:43:26;95857.88;;;4.95;81.36
13407;BME280;6774;48.208;10.766;2022-11-30T11:45:57;95856.50;;;4.91;81.15
13407;BME280;6774;48.208;10.766;2022-11-30T11:48:32;95851.25;;;4.91;80.65
13407;BME280;6774;48.208;10.766;2022-11-30T11:51:03;95851.56;;;4.88;79.58
13407;BME280;6774;48.208;10.766;2022-11-30T11:53:46;95857.75;;;4.87;79.25
13407;BME280;6774;48.208;10.766;2022-11-30T11:56:22;95851.56;;;4.88;78.98
13407;BME280;6774;48.208;10.766;2022-11-30T11:58:55;95845.78;;;4.84;78.95
13407;BME280;6774;48.208;10.766;2022-11-30T12:01:41;95856.50;;;4.91;79.59
13407;BME280;6774;48.208;10.766;2022-11-30T12:04:27;95850.59;;;4.89;79.18
13407;BME280;6774;48.208;10.766;2022-11-30T12:06:59;95858.72;;;4.85;79.04
13407;BME280;6774;48.208;10.766;2022-11-30T12:09:34;95853.19;;;4.89;79.19
13407;BME280;6774;48.208;10.766;2022-11-30T12:12:03;95863.94;;;4.85;78.77
13407;BME280;6774;48.208;10.766;2022-11-30T12:14:33;95862.69;;;4.90;79.09
13407;BME280;6774;48.208;10.766;2022-11-30T12:17:08;95859.66;;;4.94;79.79
13407;BME280;6774;48.208;10.766;2022-11-30T12:19:48;95854.28;;;4.96;79.71
13407;BME280;6774;48.208;10.766;2022-11-30T12:22:37;95856.03;;;5.05;79.37
13407;BME280;6774;48.208;10.766;2022-11-30T12:25:20;95855.41;;;5.11;79.58
13407;BME280;6774;48.208;10.766;2022-11-30T12:27:57;95850.91;;;5.13;79.70
13407;BME280;6774;48.208;10.766;2022-11-30T12:30:29;95851.56;;;5.15;79.69
13407;BME280;6774;48.208;10.766;2022-11-30T12:33:10;95854.44;;;5.12;80.06
13407;BME280;6774;48.208;10.766;2022-11-30T12:35:45;95848.78;;;5.17;79.45
13407;BME280;6774;48.208;10.766;2022-11-30T12:38:24;95849.63;;;5.17;79.46
13407;BME280;6774;48.208;10.766;2022-11-30T12:41:02;95850.59;;;5.16;78.37
13407;BME280;6774;48.208;10.766;2022-11-30T12:43:41;95849.47;;;5.19;79.07
13407;BME280;6774;48.208;10.766;2022-11-30T12:46:20;95853.34;;;5.14;79.42
13407;BME280;6774;48.208;10.766;2022-11-30T12:49:04;95851.97;;;5.10;78.71
13407;BME280;6774;48.208;10.766;2022-11-30T12:51:38;95858.63;;;5.05;78.23
13407;BME280;6774;48.208;10.766;2022-11-30T12:54:16;95852.03;;;5.01;78.67
13407;BME280;6774;48.208;10.766;2022-11-30T12:56:53;95847.91;;;4.98;78.37
13407;BME280;6774;48.208;10.766;2022-11-30T12:59:26;95851.06;;;5.02;78.73
13407;BME280;6774;48.208;10.766;2022-11-30T13:02:17;95844.03;;;5.02;79.11
13407;BME280;6774;48.208;10.766;2022-11-30T13:04:49;95842.94;;;5.05;79.28
13407;BME280;6774;48.208;10.766;2022-11-30T13:07:28;95845.25;;;5.08;79.29
13407;BME280;6774;48.208;10.766;2022-11-30T13:09:59;95844.97;;;5.11;78.91
13407;BME280;6774;48.208;10.766;2022-11-30T13:12:33;95839.59;;;5.12;78.48
13407;BME280;6774;48.208;10.766;2022-11-30T13:15:06;95846.34;;;5.15;78.43
13407;BME280;6774;48.208;10.766;2022-11-30T13:17:41;95847.00;;;5.17;79.07
13407;BME280;6774;48.208;10.766;2022-11-30T13:20:16;95839.56;;;5.22;78.74
13407;BME280;6774;48.208;10.766;2022-11-30T13:22:49;95839.56;;;5.22;79.00
13407;BME280;6774;48.208;10.766;2022-11-30T13:25:27;95840.59;;;5.29;79.07
13407;BME280;6774;48.208;10.766;2022-11-30T13:28:24;95840.75;;;5.28;78.53
13407;BME280;6774;48.208;10.766;2022-11-30T13:31:03;95848.59;;;5.28;77.88
13407;BME280;6774;48.208;10.766;2022-11-30T13:33:45;95843.22;;;5.29;78.67